createdAt,value
2022-12-19T00:00:32.039Z,31.70
2022-12-19T00:03:00.223Z,35.03
2022-12-19T00:05:28.451Z,35.17
2022-12-19T00:07:56.456Z,36.43
2022-12-19T00:10:26.071Z,31.70
2022-12-19T00:12:55.427Z,34.27
2022-12-19T00:15:23.559Z,34.60
2022-12-19T00:17:51.659Z,34.67
2022-12-19T00:20:19.683Z,31.80
2022-12-19T00:22:47.719Z,35.50
2022-12-19T00:25:18.020Z,32.37
2022-12-19T00:27:47.212Z,30.00
2022-12-19T00:30:16.867Z,32.77
2022-12-19T00:32:45.019Z,38.83
2022-12-19T00:35:13.071Z,35.37
2022-12-19T00:37:42.512Z,31.20
2022-12-19T00:40:17.849Z,34.80
2022-12-19T00:42:51.724Z,37.20
2022-12-19T00:45:23.083Z,38.63
2022-12-19T00:47:51.166Z,35.20
2022-12-19T00:50:19.287Z,33.27
2022-12-19T00:52:47.320Z,33.73
2022-12-19T00:55:19.004Z,25.43
2022-12-19T00:57:48.179Z,29.73
2022-12-19T01:00:18.635Z,36.07
2022-12-19T01:02:48.161Z,32.93
2022-12-19T01:05:16.365Z,36.27
2022-12-19T01:07:44.459Z,35.27
2022-12-19T01:10:12.481Z,32.47
2022-12-19T01:12:48.503Z,31.03
2022-12-19T01:15:18.401Z,37.77
2022-12-19T01:17:47.844Z,35.27
2022-12-19T01:20:19.094Z,36.13
2022-12-19T01:22:52.356Z,34.13
2022-12-19T01:25:20.399Z,34.83
2022-12-19T01:27:48.400Z,40.83
2022-12-19T01:30:16.497Z,29.57
2022-12-19T01:32:44.901Z,26.60
2022-12-19T01:35:21.501Z,34.80
2022-12-19T01:37:51.047Z,33.83
2022-12-19T01:40:19.354Z,28.30
2022-12-19T01:42:48.986Z,36.23
2022-12-19T01:45:34.420Z,33.83
2022-12-19T01:48:15.844Z,31.57
2022-12-19T01:51:01.061Z,35.70
2022-12-19T01:53:36.197Z,36.87
2022-12-19T01:56:18.614Z,37.27
2022-12-19T01:58:48.696Z,33.17
2022-12-19T02:01:18.547Z,35.47
2022-12-19T02:03:48.001Z,37.33
2022-12-19T02:06:18.343Z,38.43
2022-12-19T02:08:49.298Z,40.33
2022-12-19T02:11:17.630Z,38.97
2022-12-19T02:13:46.800Z,38.67
2022-12-19T02:16:28.101Z,37.03
2022-12-19T02:19:16.936Z,37.63
2022-12-19T02:21:53.260Z,25.87
2022-12-19T02:24:56.737Z,48.53
2022-12-19T02:28:06.155Z,42.73
2022-12-19T02:30:45.715Z,29.27
2022-12-19T02:33:20.546Z,48.97
2022-12-19T02:35:54.384Z,36.23
2022-12-19T02:38:29.280Z,37.13
2022-12-19T02:41:01.698Z,42.60
2022-12-19T02:43:33.276Z,39.10
2022-12-19T02:46:04.980Z,34.80
2022-12-19T02:48:35.059Z,31.93
2022-12-19T02:51:04.847Z,36.77
2022-12-19T02:53:34.434Z,34.07
2022-12-19T02:56:16.353Z,33.50
2022-12-19T02:58:56.714Z,44.20
2022-12-19T03:01:38.174Z,43.03
2022-12-19T03:04:29.618Z,34.07
2022-12-19T03:07:04.620Z,42.07
2022-12-19T03:09:41.742Z,45.87
2022-12-19T03:12:20.176Z,43.13
2022-12-19T03:14:49.659Z,29.20
2022-12-19T03:17:23.533Z,38.87
2022-12-19T03:19:51.690Z,31.60
2022-12-19T03:22:19.918Z,36.03
2022-12-19T03:24:48.411Z,27.17
2022-12-19T03:27:20.926Z,43.80
2022-12-19T03:29:55.882Z,32.57
2022-12-19T03:32:26.301Z,36.97
2022-12-19T03:34:59.559Z,38.73
2022-12-19T03:37:33.209Z,34.27
2022-12-19T03:40:04.248Z,37.80
2022-12-19T03:43:03.234Z,29.00
2022-12-19T03:45:37.642Z,33.73
2022-12-19T03:48:11.779Z,32.03
2022-12-19T03:50:47.610Z,32.03
2022-12-19T03:53:25.303Z,41.67
2022-12-19T03:55:59.809Z,37.47
2022-12-19T03:58:33.348Z,44.97
2022-12-19T04:01:04.557Z,36.57
2022-12-19T04:03:34.418Z,34.03
2022-12-19T04:06:04.155Z,38.30
2022-12-19T04:08:33.391Z,38.60
2022-12-19T04:11:08.566Z,33.47
2022-12-19T04:13:41.253Z,35.97
2022-12-19T04:16:16.286Z,34.60
2022-12-19T04:18:52.076Z,34.47
2022-12-19T04:21:24.734Z,38.00
2022-12-19T04:23:58.096Z,37.53
2022-12-19T04:26:27.369Z,36.57
2022-12-19T04:28:58.315Z,34.73
2022-12-19T04:31:26.471Z,36.27
2022-12-19T04:33:55.924Z,40.83
2022-12-19T04:36:24.087Z,43.67
2022-12-19T04:38:52.748Z,37.07
2022-12-19T04:41:20.895Z,33.03
2022-12-19T04:43:48.945Z,40.57
2022-12-19T04:46:17.065Z,35.80
2022-12-19T04:48:45.100Z,36.43
2022-12-19T04:51:14.472Z,37.03
2022-12-19T04:53:42.517Z,39.73
2022-12-19T04:56:11.486Z,39.03
2022-12-19T04:58:39.486Z,42.10
2022-12-19T05:01:09.426Z,37.90
2022-12-19T05:03:38.025Z,41.20
2022-12-19T05:06:08.107Z,39.93
2022-12-19T05:08:40.202Z,43.00
2022-12-19T05:11:13.279Z,41.57
2022-12-19T05:13:43.968Z,45.07
2022-12-19T05:16:13.619Z,42.77
2022-12-19T05:18:41.655Z,39.57
2022-12-19T05:21:10.998Z,40.47
2022-12-19T05:23:40.444Z,40.23
2022-12-19T05:26:08.941Z,38.77
2022-12-19T05:28:36.977Z,40.30
2022-12-19T05:31:07.511Z,38.07
2022-12-19T05:33:36.101Z,42.97
2022-12-19T05:36:05.037Z,41.17
2022-12-19T05:38:33.544Z,40.17
2022-12-19T05:41:07.751Z,34.30
2022-12-19T05:43:35.891Z,50.00
2022-12-19T05:46:05.770Z,42.27
2022-12-19T05:48:33.961Z,38.33
2022-12-19T05:51:03.469Z,47.67
2022-12-19T05:53:31.594Z,43.87
2022-12-19T05:56:09.975Z,41.53
2022-12-19T05:58:40.205Z,40.27
2022-12-19T06:01:10.324Z,49.83
2022-12-19T06:03:38.805Z,46.03
2022-12-19T06:06:09.141Z,43.57
2022-12-19T06:08:37.441Z,40.47
2022-12-19T06:11:09.039Z,48.33
2022-12-19T06:13:37.824Z,50.40
2022-12-19T06:16:09.091Z,42.07
2022-12-19T06:18:41.566Z,44.70
2022-12-19T06:21:14.646Z,47.03
2022-12-19T06:23:43.128Z,47.93
2022-12-19T06:26:19.097Z,52.77
2022-12-19T06:28:48.826Z,45.93
2022-12-19T06:31:17.749Z,47.73
2022-12-19T06:33:46.272Z,37.57
2022-12-19T06:36:17.605Z,46.80
2022-12-19T06:38:45.772Z,39.93
2022-12-19T06:41:33.621Z,42.13
2022-12-19T06:44:03.278Z,51.00
2022-12-19T06:46:32.242Z,48.10
2022-12-19T06:49:00.630Z,43.30
2022-12-19T06:51:29.138Z,46.33
2022-12-19T06:53:57.516Z,51.07
2022-12-19T06:56:28.026Z,57.33
2022-12-19T06:58:56.135Z,44.57
2022-12-19T07:01:34.781Z,51.17
2022-12-19T07:04:03.944Z,42.07
2022-12-19T07:06:32.039Z,40.57
2022-12-19T07:09:00.198Z,49.83
2022-12-19T07:11:29.638Z,44.97
2022-12-19T07:13:57.635Z,36.67
2022-12-19T07:16:26.909Z,43.17
2022-12-19T07:18:55.203Z,40.03
2022-12-19T07:21:23.289Z,45.10
2022-12-19T07:23:51.536Z,35.73
2022-12-19T07:26:19.597Z,48.30
2022-12-19T07:28:49.087Z,48.53
2022-12-19T07:31:17.181Z,48.65
2022-12-19T07:33:45.204Z,50.58
2022-12-19T07:36:13.386Z,56.80
2022-12-19T07:38:41.439Z,52.83
2022-12-19T07:41:09.563Z,54.57
2022-12-19T07:43:37.556Z,60.50
2022-12-19T07:46:07.156Z,53.67
2022-12-19T07:48:35.232Z,55.67
2022-12-19T07:51:04.187Z,51.85
2022-12-19T07:53:32.581Z,57.15
2022-12-19T07:56:00.612Z,50.20
2022-12-19T07:58:28.691Z,54.03
2022-12-19T08:00:57.536Z,47.80
2022-12-19T08:03:28.261Z,54.07
2022-12-19T08:06:00.983Z,46.30
2022-12-19T08:08:30.293Z,49.77
2022-12-19T08:11:10.051Z,44.55
2022-12-19T08:13:43.298Z,44.87
2022-12-19T08:16:14.596Z,45.00
2022-12-19T08:18:44.359Z,44.40
2022-12-19T08:21:13.316Z,53.07
2022-12-19T08:23:42.211Z,53.13
2022-12-19T08:26:17.488Z,43.47
2022-12-19T08:28:48.013Z,48.13
2022-12-19T08:31:17.936Z,52.13
2022-12-19T08:33:48.335Z,74.80
2022-12-19T08:36:19.725Z,61.10
2022-12-19T08:38:48.976Z,57.70
2022-12-19T08:41:18.010Z,54.33
2022-12-19T08:43:50.206Z,58.17
2022-12-19T08:46:18.809Z,60.27
2022-12-19T08:48:48.287Z,51.43
2022-12-19T08:51:17.560Z,52.33
2022-12-19T08:53:46.499Z,54.10
2022-12-19T08:56:16.375Z,51.17
2022-12-19T08:58:44.493Z,47.65
2022-12-19T09:01:15.324Z,47.57
2022-12-19T09:04:36.480Z,47.63
2022-12-19T09:06:33.119Z,49.67
2022-12-19T09:09:01.206Z,50.27
2022-12-19T09:11:29.422Z,57.23
2022-12-19T09:13:58.771Z,53.47
2022-12-19T09:16:28.336Z,66.70
2022-12-19T09:18:58.653Z,58.28
2022-12-19T09:21:28.842Z,55.25
2022-12-19T09:24:07.054Z,54.75
2022-12-19T09:26:37.205Z,60.53
2022-12-19T09:29:12.221Z,55.20
2022-12-19T09:31:55.303Z,54.20
2022-12-19T09:34:25.596Z,53.55
2022-12-19T09:37:05.280Z,57.50
2022-12-19T09:39:35.426Z,48.90
2022-12-19T09:42:41.228Z,45.83
2022-12-19T09:45:33.923Z,46.28
2022-12-19T09:48:03.136Z,37.90
2022-12-19T09:50:45.436Z,46.58
2022-12-19T09:53:22.312Z,50.40
2022-12-19T09:55:53.936Z,47.45
2022-12-19T09:58:32.412Z,53.58
2022-12-19T10:01:04.043Z,59.08
2022-12-19T10:03:40.536Z,63.78
2022-12-19T10:06:51.775Z,69.37
2022-12-19T10:10:45.276Z,57.57
2022-12-19T10:12:39.584Z,44.47
2022-12-19T10:15:09.461Z,50.28
2022-12-19T10:17:56.440Z,54.83
2022-12-19T10:20:29.303Z,55.47
2022-12-19T10:23:10.686Z,43.33
2022-12-19T10:25:52.600Z,47.47
2022-12-19T10:28:43.643Z,46.00
2022-12-19T10:31:21.978Z,40.67
2022-12-19T10:33:56.843Z,50.08
2022-12-19T10:36:48.566Z,44.20
2022-12-19T10:39:21.519Z,39.08
2022-12-19T10:41:55.701Z,44.28
2022-12-19T10:44:31.280Z,45.63
2022-12-19T10:46:59.420Z,43.45
2022-12-19T10:49:29.321Z,41.63
2022-12-19T10:52:02.407Z,44.33
2022-12-19T10:54:40.904Z,45.33
2022-12-19T10:57:25.605Z,43.90
2022-12-19T11:00:03.880Z,44.92
2022-12-19T11:02:36.817Z,45.10
2022-12-19T11:05:20.414Z,42.42
2022-12-19T11:08:01.396Z,33.00
2022-12-19T11:12:43.915Z,39.45
2022-12-19T11:18:20.923Z,38.35
2022-12-19T11:23:29.171Z,38.83
2022-12-19T11:29:34.432Z,35.17
2022-12-19T11:29:38.719Z,31.23
2022-12-19T11:30:25.962Z,35.50
2022-12-19T11:30:48.003Z,35.95
2022-12-19T11:34:06.905Z,33.10
2022-12-19T11:36:40.772Z,29.83
2022-12-19T11:39:16.785Z,35.05
2022-12-19T11:41:50.262Z,34.55
2022-12-19T11:44:28.451Z,33.55
2022-12-19T11:47:04.678Z,40.05
2022-12-19T11:49:39.728Z,31.48
2022-12-19T11:53:02.324Z,36.20
2022-12-19T11:55:19.190Z,32.90
2022-12-19T11:57:47.766Z,35.75
2022-12-19T12:00:20.345Z,41.00
2022-12-19T12:03:21.847Z,43.45
2022-12-19T12:05:54.493Z,37.83
2022-12-19T12:11:14.721Z,38.28
2022-12-19T12:21:23.074Z,46.10
2022-12-19T12:21:57.695Z,34.10
2022-12-19T12:31:09.929Z,40.30
2022-12-19T12:31:10.540Z,35.25
2022-12-19T12:31:41.206Z,35.58
2022-12-19T12:31:57.031Z,38.60
2022-12-19T12:32:02.265Z,34.92
2022-12-19T12:35:48.802Z,43.65
2022-12-19T12:38:43.935Z,41.83
2022-12-19T12:41:44.960Z,42.80
2022-12-19T12:44:14.167Z,41.67
2022-12-19T12:46:47.195Z,49.63
2022-12-19T12:49:35.928Z,34.90
2022-12-19T12:52:07.843Z,35.78
2022-12-19T12:54:41.711Z,36.20
2022-12-19T12:57:21.952Z,33.90
2022-12-19T13:00:19.288Z,36.95
2022-12-19T13:02:51.192Z,35.83
2022-12-19T13:05:53.439Z,34.00
2022-12-19T13:08:35.495Z,39.88
2022-12-19T13:11:07.968Z,41.45
2022-12-19T13:13:58.042Z,37.67
2022-12-19T13:16:52.876Z,35.88
2022-12-19T13:19:28.410Z,39.10
2022-12-19T13:22:20.513Z,43.67
2022-12-19T13:24:51.209Z,38.15
2022-12-19T13:27:40.397Z,41.47
2022-12-19T13:30:17.790Z,37.17
2022-12-19T13:33:09.950Z,49.42
2022-12-19T13:37:32.436Z,39.65
2022-12-19T13:40:00.874Z,42.47
2022-12-19T13:41:46.130Z,38.80
2022-12-19T13:44:19.055Z,55.45
2022-12-19T13:46:48.540Z,45.17
2022-12-19T13:49:20.887Z,45.08
2022-12-19T13:51:51.159Z,50.42
2022-12-19T13:54:22.740Z,42.53
2022-12-19T13:56:51.784Z,37.65
2022-12-19T13:59:23.104Z,36.25
2022-12-19T14:01:53.222Z,36.95
2022-12-19T14:04:28.926Z,40.85
2022-12-19T14:07:01.734Z,39.67
2022-12-19T14:11:27.123Z,42.60
2022-12-19T14:13:58.870Z,35.55
2022-12-19T14:15:34.291Z,37.03
2022-12-19T14:18:05.071Z,38.15
2022-12-19T14:22:07.322Z,45.92
2022-12-19T14:24:10.147Z,39.83
2022-12-19T14:28:24.083Z,38.63
2022-12-19T14:30:27.605Z,40.55
2022-12-19T14:33:45.212Z,38.25
2022-12-19T14:36:10.008Z,35.13
2022-12-19T14:39:22.713Z,34.47
2022-12-19T14:41:08.336Z,28.83
2022-12-19T14:43:57.813Z,23.98
2022-12-19T14:53:52.387Z,26.42
2022-12-19T14:54:01.163Z,29.08
2022-12-19T14:54:48.290Z,31.35
2022-12-19T14:56:19.613Z,25.17
2022-12-19T14:58:52.426Z,26.80
2022-12-19T15:01:24.235Z,35.70
2022-12-19T15:04:52.826Z,31.80
2022-12-19T15:07:08.449Z,36.10
2022-12-19T15:11:06.969Z,24.92
2022-12-19T15:14:47.043Z,29.83
2022-12-19T15:15:45.316Z,27.02
2022-12-19T15:18:26.214Z,31.00
2022-12-19T15:20:56.786Z,30.88
2022-12-19T15:23:26.677Z,37.30
2022-12-19T15:26:11.494Z,36.78
2022-12-19T15:28:42.230Z,33.15
2022-12-19T15:31:28.760Z,34.45
2022-12-19T15:34:33.163Z,41.45
2022-12-19T15:36:45.524Z,36.38
2022-12-19T15:39:15.973Z,32.90
2022-12-19T15:41:45.409Z,47.33
2022-12-19T15:44:18.559Z,40.67
2022-12-19T15:46:49.225Z,40.67
2022-12-19T15:49:18.878Z,40.85
2022-12-19T15:51:47.845Z,45.95
2022-12-19T15:57:06.230Z,41.33
2022-12-19T15:59:38.289Z,53.85
2022-12-19T16:02:17.656Z,74.27
2022-12-19T16:04:47.283Z,88.25
2022-12-19T16:07:17.772Z,61.67
2022-12-19T16:09:47.653Z,61.63
2022-12-19T16:12:17.727Z,55.93
2022-12-19T16:14:46.884Z,50.27
2022-12-19T16:17:20.769Z,43.00
2022-12-19T16:19:49.095Z,40.13
2022-12-19T16:22:19.550Z,35.00
2022-12-19T16:24:49.164Z,40.00
2022-12-19T16:27:24.366Z,35.75
2022-12-19T16:29:52.993Z,41.87
2022-12-19T16:32:23.846Z,45.95
2022-12-19T16:34:52.527Z,42.70
2022-12-19T16:37:20.694Z,59.90
2022-12-19T16:39:50.229Z,65.82
2022-12-19T16:42:19.193Z,60.80
2022-12-19T16:44:48.923Z,55.40
2022-12-19T16:47:18.631Z,56.53
2022-12-19T16:49:46.846Z,87.65
2022-12-19T16:52:15.275Z,69.07
2022-12-19T16:54:43.294Z,59.92
2022-12-19T16:57:21.032Z,63.10
2022-12-19T16:59:49.604Z,66.72
2022-12-19T17:02:41.601Z,70.95
2022-12-19T17:05:20.599Z,62.67
2022-12-19T17:07:49.383Z,67.37
2022-12-19T17:10:22.778Z,61.03
2022-12-19T17:12:56.401Z,67.63
2022-12-19T17:15:28.162Z,55.55
2022-12-19T17:17:59.065Z,62.00
2022-12-19T17:20:37.874Z,64.77
2022-12-19T17:23:14.119Z,62.40
2022-12-19T17:25:42.521Z,66.63
2022-12-19T17:28:12.587Z,78.57
2022-12-19T17:30:42.077Z,65.77
2022-12-19T17:33:15.389Z,66.87
2022-12-19T17:35:44.835Z,65.70
2022-12-19T17:38:15.115Z,60.13
2022-12-19T17:40:43.613Z,57.53
2022-12-19T17:43:13.583Z,53.00
2022-12-19T17:45:42.006Z,55.97
2022-12-19T17:48:22.008Z,56.22
2022-12-19T17:50:50.085Z,56.67
2022-12-19T17:53:18.155Z,50.87
2022-12-19T17:55:46.220Z,55.50
2022-12-19T17:58:15.856Z,46.93
2022-12-19T18:00:46.976Z,41.00
2022-12-19T18:03:21.299Z,47.17
2022-12-19T18:05:50.769Z,40.50
2022-12-19T18:08:26.002Z,36.00
2022-12-19T18:10:56.373Z,30.90
2022-12-19T18:13:26.666Z,40.90
2022-12-19T18:15:58.254Z,43.13
2022-12-19T18:18:29.057Z,40.83
2022-12-19T18:20:57.850Z,43.77
2022-12-19T18:23:25.934Z,51.25
2022-12-19T18:25:59.431Z,55.97
2022-12-19T18:28:31.542Z,63.53
2022-12-19T18:31:02.377Z,69.40
2022-12-19T18:33:40.275Z,50.17
2022-12-19T18:36:14.478Z,45.40
2022-12-19T18:38:42.514Z,49.73
2022-12-19T18:41:12.534Z,44.67
2022-12-19T18:43:42.122Z,43.67
2022-12-19T18:46:13.777Z,54.63
2022-12-19T18:48:45.095Z,51.10
2022-12-19T18:51:16.485Z,53.38
2022-12-19T18:53:47.206Z,49.70
2022-12-19T18:56:15.974Z,61.13
2022-12-19T18:58:45.324Z,68.73
2022-12-19T19:01:16.394Z,67.57
2022-12-19T19:03:49.815Z,93.28
2022-12-19T19:06:20.775Z,85.13
2022-12-19T19:08:50.220Z,85.90
2022-12-19T19:11:47.412Z,86.40
2022-12-19T19:14:16.882Z,85.57
2022-12-19T19:16:44.947Z,80.20
2022-12-19T19:19:17.460Z,79.27
2022-12-19T19:21:45.571Z,81.50
2022-12-19T19:24:17.107Z,73.23
2022-12-19T19:26:45.540Z,71.43
2022-12-19T19:29:14.869Z,67.93
2022-12-19T19:31:47.693Z,75.97
2022-12-19T19:34:21.542Z,69.63
2022-12-19T19:36:53.636Z,71.47
2022-12-19T19:39:22.734Z,73.47
2022-12-19T19:41:51.035Z,80.80
2022-12-19T19:44:19.103Z,76.40
2022-12-19T19:46:48.668Z,63.23
2022-12-19T19:49:16.925Z,63.60
2022-12-19T19:51:45.647Z,65.67
2022-12-19T19:54:13.789Z,72.38
2022-12-19T19:56:41.823Z,53.10
2022-12-19T19:59:09.910Z,55.73
2022-12-19T20:01:38.137Z,48.90
2022-12-19T20:04:07.956Z,56.35
2022-12-19T20:06:36.051Z,57.00
2022-12-19T20:09:04.234Z,58.72
2022-12-19T20:11:32.359Z,52.13
2022-12-19T20:14:00.409Z,73.30
2022-12-19T20:16:28.566Z,51.20
2022-12-19T20:18:56.765Z,57.47
2022-12-19T20:21:26.228Z,60.90
2022-12-19T20:23:54.306Z,57.55
2022-12-19T20:26:22.473Z,53.73
2022-12-19T20:28:51.718Z,82.63
2022-12-19T20:31:20.961Z,73.60
2022-12-19T20:33:50.413Z,69.35
2022-12-19T20:36:18.527Z,73.28
2022-12-19T20:38:48.404Z,86.60
2022-12-19T20:41:17.084Z,76.03
2022-12-19T20:43:45.451Z,74.20
2022-12-19T20:46:15.711Z,82.47
2022-12-19T20:48:44.792Z,100.47
2022-12-19T20:51:14.010Z,90.03
2022-12-19T20:53:43.069Z,91.57
2022-12-19T20:56:16.081Z,87.53
2022-12-19T20:58:44.496Z,80.50
2022-12-19T21:01:15.067Z,63.80
2022-12-19T21:03:43.857Z,80.05
2022-12-19T21:06:14.544Z,85.68
2022-12-19T21:08:43.070Z,75.90
2022-12-19T21:11:13.547Z,66.15
2022-12-19T21:13:41.941Z,65.93
2022-12-19T21:16:12.812Z,78.22
2022-12-19T21:18:42.231Z,113.15
2022-12-19T21:21:12.505Z,95.22
2022-12-19T21:23:40.919Z,97.35
2022-12-19T21:26:09.075Z,93.88
2022-12-19T21:28:39.236Z,83.28
2022-12-19T21:31:12.598Z,95.60
2022-12-19T21:33:40.758Z,83.32
2022-12-19T21:36:10.323Z,111.57
2022-12-19T21:38:38.664Z,86.93
2022-12-19T21:41:08.202Z,77.65
2022-12-19T21:43:38.932Z,74.30
2022-12-19T21:46:08.781Z,87.63
2022-12-19T21:48:38.586Z,88.97
2022-12-19T21:51:07.420Z,91.13
2022-12-19T21:53:36.505Z,91.15
2022-12-19T21:56:06.394Z,104.43
2022-12-19T21:58:34.595Z,95.22
2022-12-19T22:01:09.337Z,79.10
2022-12-19T22:03:37.601Z,74.70
2022-12-19T22:06:08.639Z,73.70
2022-12-19T22:08:37.452Z,85.90
2022-12-19T22:11:10.431Z,84.38
2022-12-19T22:13:38.434Z,73.88
2022-12-19T22:16:08.581Z,73.90
2022-12-19T22:18:37.114Z,72.43
2022-12-19T22:21:06.001Z,73.10
2022-12-19T22:23:34.403Z,81.30
2022-12-19T22:26:05.146Z,76.43
2022-12-19T22:28:34.652Z,74.38
2022-12-19T22:31:03.243Z,83.07
2022-12-19T22:33:32.666Z,75.32
2022-12-19T22:36:05.860Z,77.38
2022-12-19T22:38:34.103Z,69.40
2022-12-19T22:41:04.404Z,85.97
2022-12-19T22:43:32.532Z,70.90
2022-12-19T22:46:00.636Z,64.20
2022-12-19T22:48:28.744Z,77.45
2022-12-19T22:50:58.166Z,61.90
2022-12-19T22:53:26.218Z,59.00
2022-12-19T22:55:54.213Z,55.20
2022-12-19T22:58:22.272Z,48.90
2022-12-19T23:00:50.506Z,50.97
2022-12-19T23:03:18.759Z,57.33
2022-12-19T23:05:51.913Z,52.58
2022-12-19T23:08:21.651Z,49.72
2022-12-19T23:10:51.466Z,48.38
2022-12-19T23:13:19.889Z,52.65
2022-12-19T23:15:47.965Z,49.38
2022-12-19T23:18:16.397Z,65.88
2022-12-19T23:20:45.073Z,57.65
2022-12-19T23:23:13.111Z,48.75
2022-12-19T23:25:43.405Z,82.85
2022-12-19T23:28:11.601Z,54.33
2022-12-19T23:30:39.652Z,69.13
2022-12-19T23:33:07.666Z,61.65
2022-12-19T23:35:35.780Z,50.58
2022-12-19T23:38:04.371Z,61.60
2022-12-19T23:40:32.408Z,55.38
2022-12-19T23:43:02.035Z,54.70
2022-12-19T23:45:30.328Z,59.47
2022-12-19T23:47:58.351Z,58.35
2022-12-19T23:50:26.448Z,56.42
2022-12-19T23:52:54.599Z,50.35
2022-12-19T23:55:22.721Z,60.83
2022-12-19T23:57:50.743Z,92.40
